Time;durP1;ratioP1;P1;durP2;ratioP2;P2;SDS_P1;SDS_P2;PMS_P1;PMS_P2;Temp;Humidity;BMP_temperature;BMP_pressure;BME280_temperature;BME280_humidity;BME280_pressure;Samples;Min_cycle;Max_cycle;Signal;HPM_P1;HPM_P2
2022/03/01 00:01:09;;;;;;;;;;;24.00;46.40;;;;;;1596077;74;1198;-70
2022/03/01 00:03:11;;;;;;;;;;;24.00;46.40;;;;;;1600223;74;738;-72
2022/03/01 00:05:13;;;;;;;;;;;24.00;46.40;;;;;;1600309;74;740;-70
2022/03/01 00:07:15;;;;;;;;;;;23.90;46.50;;;;;;1600274;73;770;-71
2022/03/01 00:09:17;;;;;;;;;;;24.00;46.40;;;;;;1600204;74;783;-69
2022/03/01 00:11:19;;;;;;;;;;;23.90;46.40;;;;;;1600247;74;1937;-71
2022/03/01 00:13:20;;;;;;;;;;;23.90;46.40;;;;;;1600302;74;880;-70
2022/03/01 00:15:22;;;;;;;;;;;23.90;46.40;;;;;;1600060;73;720;-71
2022/03/01 00:17:24;;;;;;;;;;;23.90;46.50;;;;;;1600312;74;649;-71
2022/03/01 00:19:31;;;;;;;;;;;24.00;46.50;;;;;;1600055;73;741;-72
2022/03/01 00:21:30;;;;;;;;;;;23.90;46.50;;;;;;1599490;74;1170;-71
2022/03/01 00:23:32;;;;;;;;;;;23.90;46.50;;;;;;1602317;73;764;-71
2022/03/01 00:25:34;;;;;;;;;;;23.90;46.50;;;;;;1599762;74;710;-71
2022/03/01 00:27:36;;;;;;;;;;;23.90;46.50;;;;;;1600284;73;664;-70
2022/03/01 00:29:38;;;;;;;;;;;23.90;46.50;;;;;;1600183;74;774;-71
2022/03/01 00:31:40;;;;;;;;;;;23.90;46.50;;;;;;1599909;74;1929;-71
2022/03/01 00:33:42;;;;;;;;;;;23.90;46.50;;;;;;1595803;74;736;-70
2022/03/01 00:35:43;;;;;;;;;;;23.90;46.50;;;;;;1600198;74;729;-71
2022/03/01 00:37:45;;;;;;;;;;;23.90;46.50;;;;;;1600341;73;725;-72
2022/03/01 00:39:47;;;;;;;;;;;23.90;46.50;;;;;;1600399;74;734;-71
2022/03/01 00:41:49;;;;;;;;;;;23.90;46.50;;;;;;1600149;74;1147;-71
2022/03/01 00:43:51;;;;;;;;;;;23.90;46.50;;;;;;1600327;74;767;-70
2022/03/01 00:45:53;;;;;;;;;;;23.80;46.50;;;;;;1600044;73;759;-74
2022/03/01 00:47:55;;;;;;;;;;;23.90;46.50;;;;;;1600255;74;760;-71
2022/03/01 00:49:57;;;;;;;;;;;23.90;46.60;;;;;;1600185;73;781;-70
2022/03/01 00:51:59;;;;;;;;;;;23.90;46.60;;;;;;1600109;74;1945;-70
2022/03/01 00:54:01;;;;;;;;;;;23.90;46.60;;;;;;1599893;74;908;-74
2022/03/01 00:56:04;;;;;;;;;;;23.90;46.70;;;;;;1600135;74;723;-71
2022/03/01 00:58:06;;;;;;;;;;;23.90;46.60;;;;;;1600256;73;728;-71
2022/03/01 01:00:08;;;;;;;;;;;23.90;46.70;;;;;;1600376;74;726;-71
2022/03/01 01:02:10;;;;;;;;;;;23.90;46.60;;;;;;1600118;74;1154;-71
2022/03/01 01:04:11;;;;;;;;;;;23.90;46.60;;;;;;1600369;74;707;-70
2022/03/01 01:06:13;;;;;;;;;;;23.90;46.70;;;;;;1600099;73;694;-71
2022/03/01 01:08:15;;;;;;;;;;;23.90;46.70;;;;;;1600220;74;740;-72
2022/03/01 01:10:17;;;;;;;;;;;23.90;46.70;;;;;;1600317;74;753;-73
2022/03/01 01:12:19;;;;;;;;;;;23.80;46.60;;;;;;1600186;74;1961;-73
2022/03/01 01:14:21;;;;;;;;;;;23.90;46.70;;;;;;1600491;73;718;-72
2022/03/01 01:16:23;;;;;;;;;;;23.90;46.60;;;;;;1600230;74;721;-71
2022/03/01 01:18:25;;;;;;;;;;;23.80;46.60;;;;;;1600235;74;745;-70
2022/03/01 01:20:27;;;;;;;;;;;23.90;46.70;;;;;;1600285;73;775;-71
2022/03/01 01:22:41;;;;;;;;;;;23.90;46.80;;;;;;1600314;74;1119;-71
2022/03/01 01:24:44;;;;;;;;;;;23.90;46.80;;;;;;1600367;74;559;-73
2022/03/01 01:26:46;;;;;;;;;;;23.90;46.80;;;;;;1600576;74;713;-73
2022/03/01 01:28:48;;;;;;;;;;;23.90;46.90;;;;;;1600482;73;766;-70
2022/03/01 01:30:50;;;;;;;;;;;23.90;46.90;;;;;;1600632;74;1292;-71
2022/03/01 01:32:52;;;;;;;;;;;23.90;47.00;;;;;;1600572;74;1949;-72
2022/03/01 01:34:54;;;;;;;;;;;23.90;46.90;;;;;;1600521;74;740;-73
2022/03/01 01:36:56;;;;;;;;;;;24.00;47.00;;;;;;1600525;74;740;-73
2022/03/01 01:38:58;;;;;;;;;;;23.90;46.90;;;;;;1600430;73;744;-72
2022/03/01 01:40:59;;;;;;;;;;;23.90;46.90;;;;;;1600607;74;1234;-72
2022/03/01 01:43:02;;;;;;;;;;;23.90;46.80;;;;;;1600584;74;770;-74
2022/03/01 01:45:04;;;;;;;;;;;23.90;46.80;;;;;;1600467;74;884;-76
2022/03/01 01:47:07;;;;;;;;;;;23.90;46.80;;;;;;1596632;73;706;-71
2022/03/01 01:49:09;;;;;;;;;;;23.90;46.90;;;;;;1600721;74;782;-71
2022/03/01 01:51:11;;;;;;;;;;;23.90;46.80;;;;;;1600747;73;1944;-70
2022/03/01 01:53:13;;;;;;;;;;;23.90;46.90;;;;;;1591772;74;727;-70
2022/03/01 01:55:15;;;;;;;;;;;23.90;46.90;;;;;;1600659;74;702;-73
2022/03/01 01:57:18;;;;;;;;;;;23.90;46.90;;;;;;1600737;74;753;-71
2022/03/01 01:59:20;;;;;;;;;;;23.90;46.90;;;;;;1600763;73;683;-71
2022/03/01 02:01:22;;;;;;;;;;;23.90;46.90;;;;;;1600770;74;1146;-72
2022/03/01 02:03:24;;;;;;;;;;;24.00;47.00;;;;;;1600845;74;674;-70
2022/03/01 02:05:26;;;;;;;;;;;24.00;46.90;;;;;;1600591;74;725;-70
2022/03/01 02:07:28;;;;;;;;;;;23.90;46.90;;;;;;1591925;74;868;-70
2022/03/01 02:09:30;;;;;;;;;;;23.90;46.90;;;;;;1600763;73;707;-70
2022/03/01 02:11:32;;;;;;;;;;;24.00;46.90;;;;;;1600693;74;1945;-69
2022/03/01 02:13:34;;;;;;;;;;;23.90;46.90;;;;;;1600783;74;709;-70
2022/03/01 02:15:37;;;;;;;;;;;23.90;46.90;;;;;;1600562;74;705;-71
2022/03/01 02:17:40;;;;;;;;;;;23.90;46.90;;;;;;1600413;73;671;-71
2022/03/01 02:19:54;;;;;;;;;;;23.90;46.90;;;;;;1587382;73;729;-69
2022/03/01 02:21:56;;;;;;;;;;;23.90;46.90;;;;;;1600616;74;1135;-74
2022/03/01 02:23:58;;;;;;;;;;;23.90;46.90;;;;;;1586274;74;721;-73
2022/03/01 02:25:59;;;;;;;;;;;23.90;46.90;;;;;;1600675;74;1117;-70
2022/03/01 02:28:01;;;;;;;;;;;23.90;47.00;;;;;;1600534;74;752;-71
2022/03/01 02:30:05;;;;;;;;;;;24.00;47.00;;;;;;1580474;71;226447;-74
2022/03/01 02:32:07;;;;;;;;;;;23.90;47.00;;;;;;1582449;74;1937;-72
2022/03/01 02:34:09;;;;;;;;;;;23.90;47.00;;;;;;1590792;74;651;-72
2022/03/01 02:36:11;;;;;;;;;;;23.90;47.00;;;;;;1603372;74;716;-72
2022/03/01 02:38:13;;;;;;;;;;;23.90;46.90;;;;;;1593963;74;658;-72
2022/03/01 02:40:15;;;;;;;;;;;23.90;46.90;;;;;;1601228;74;1160;-73
2022/03/01 02:42:16;;;;;;;;;;;23.90;47.00;;;;;;1581374;74;719;-73
2022/03/01 02:44:18;;;;;;;;;;;23.90;47.00;;;;;;1583089;74;725;-71
2022/03/01 02:46:20;;;;;;;;;;;23.90;47.00;;;;;;1596951;74;720;-72
2022/03/01 02:48:22;;;;;;;;;;;23.90;47.00;;;;;;1585640;74;729;-72
2022/03/01 02:50:24;;;;;;;;;;;23.90;47.00;;;;;;1585336;74;1100;-72
2022/03/01 02:52:26;;;;;;;;;;;23.90;46.90;;;;;;1586008;74;1936;-72
2022/03/01 02:54:28;;;;;;;;;;;23.90;47.00;;;;;;1549131;75;755;-73
2022/03/01 02:56:30;;;;;;;;;;;23.90;46.90;;;;;;1549084;75;785;-72
2022/03/01 02:58:31;;;;;;;;;;;23.90;46.90;;;;;;1573391;74;1173;-72
2022/03/01 03:00:33;;;;;;;;;;;23.90;46.90;;;;;;1574461;75;737;-71
2022/03/01 03:02:35;;;;;;;;;;;23.90;46.90;;;;;;1576069;74;706;-72
2022/03/01 03:04:37;;;;;;;;;;;23.90;46.90;;;;;;1571636;75;675;-74
2022/03/01 03:06:39;;;;;;;;;;;23.90;46.90;;;;;;1576611;74;714;-73
2022/03/01 03:08:41;;;;;;;;;;;23.90;46.90;;;;;;1567597;75;1132;-73
2022/03/01 03:10:43;;;;;;;;;;;23.90;46.90;;;;;;1577914;75;722;-74
2022/03/01 03:12:45;;;;;;;;;;;23.90;46.90;;;;;;1577015;74;1936;-72
2022/03/01 03:14:46;;;;;;;;;;;23.90;46.90;;;;;;1568522;75;797;-73
2022/03/01 03:16:48;;;;;;;;;;;23.90;46.90;;;;;;1578066;75;688;-73
2022/03/01 03:18:50;;;;;;;;;;;23.90;46.90;;;;;;1578056;75;1181;-73
2022/03/01 03:20:52;;;;;;;;;;;23.90;46.90;;;;;;1576899;74;693;-73
2022/03/01 03:22:54;;;;;;;;;;;23.90;47.00;;;;;;1566359;74;734;-73
2022/03/01 03:24:56;;;;;;;;;;;23.90;46.90;;;;;;1574854;75;710;-71
2022/03/01 03:26:58;;;;;;;;;;;23.90;46.90;;;;;;1572758;75;730;-73
2022/03/01 03:29:00;;;;;;;;;;;24.00;47.00;;;;;;1577938;75;1145;-74
2022/03/01 03:31:02;;;;;;;;;;;23.90;47.00;;;;;;1569963;75;789;-76
2022/03/01 03:33:04;;;;;;;;;;;23.90;47.00;;;;;;1577823;75;1946;-73
2022/03/01 03:35:05;;;;;;;;;;;24.00;47.00;;;;;;1572689;75;705;-72
2022/03/01 03:37:07;;;;;;;;;;;23.90;47.00;;;;;;1572281;75;710;-73
2022/03/01 03:39:10;;;;;;;;;;;24.00;46.90;;;;;;1577832;74;1181;-72
2022/03/01 03:41:11;;;;;;;;;;;24.00;47.00;;;;;;1577543;75;711;-73
2022/03/01 03:43:13;;;;;;;;;;;24.00;46.90;;;;;;1576039;75;831;-74
2022/03/01 03:45:15;;;;;;;;;;;24.00;46.90;;;;;;1567886;74;716;-73
2022/03/01 03:47:17;;;;;;;;;;;24.10;47.00;;;;;;1578351;75;673;-74
2022/03/01 03:49:19;;;;;;;;;;;24.10;47.00;;;;;;1564659;74;1146;-72
2022/03/01 03:51:23;;;;;;;;;;;24.10;47.00;;;;;;1577057;74;808;-74
2022/03/01 03:53:25;;;;;;;;;;;24.10;46.90;;;;;;1577945;75;1907;-74
2022/03/01 03:55:27;;;;;;;;;;;24.10;46.80;;;;;;1577703;74;753;-72
2022/03/01 03:57:29;;;;;;;;;;;24.20;46.80;;;;;;1571073;75;710;-73
2022/03/01 03:59:30;;;;;;;;;;;24.20;46.70;;;;;;1573319;75;1125;-73
2022/03/01 04:01:32;;;;;;;;;;;24.30;46.80;;;;;;1574870;75;694;-72
2022/03/01 04:03:34;;;;;;;;;;;24.30;46.70;;;;;;1564145;75;728;-74
2022/03/01 04:05:36;;;;;;;;;;;24.30;46.60;;;;;;1571370;74;745;-75
2022/03/01 04:07:38;;;;;;;;;;;24.30;46.50;;;;;;1570147;74;749;-73
2022/03/01 04:09:40;;;;;;;;;;;24.30;46.50;;;;;;1566848;74;1130;-75
2022/03/01 04:11:42;;;;;;;;;;;24.40;46.50;;;;;;1564996;74;729;-74
2022/03/01 04:13:44;;;;;;;;;;;24.50;46.50;;;;;;1552837;75;1939;-78
2022/03/01 04:15:45;;;;;;;;;;;24.40;46.30;;;;;;1578968;75;720;-76
2022/03/01 04:17:47;;;;;;;;;;;24.50;46.40;;;;;;1571517;75;730;-76
2022/03/01 04:19:51;;;;;;;;;;;24.50;46.30;;;;;;1551526;75;1128;-76
2022/03/01 04:21:52;;;;;;;;;;;24.40;46.20;;;;;;1552850;74;704;-74
2022/03/01 04:23:54;;;;;;;;;;;24.50;46.30;;;;;;1561500;75;697;-77
2022/03/01 04:25:56;;;;;;;;;;;24.50;46.30;;;;;;1565251;75;720;-79
2022/03/01 04:27:58;;;;;;;;;;;24.50;46.20;;;;;;1561685;74;786;-75
2022/03/01 04:30:00;;;;;;;;;;;24.60;46.20;;;;;;1581297;74;1112;-76
2022/03/01 04:32:02;;;;;;;;;;;24.60;46.20;;;;;;1583827;74;708;-77
2022/03/01 04:34:04;;;;;;;;;;;24.60;46.20;;;;;;1575783;74;1930;-76
2022/03/01 04:36:06;;;;;;;;;;;24.50;46.20;;;;;;1592830;74;715;-75
2022/03/01 04:38:08;;;;;;;;;;;24.60;46.10;;;;;;1577325;74;720;-76
2022/03/01 04:40:10;;;;;;;;;;;24.60;46.00;;;;;;1589247;74;1129;-74
2022/03/01 04:42:12;;;;;;;;;;;24.60;46.00;;;;;;1588525;74;721;-78
2022/03/01 04:44:14;;;;;;;;;;;24.60;46.00;;;;;;1590080;74;730;-77
2022/03/01 04:46:18;;;;;;;;;;;24.70;46.20;;;;;;1584741;74;825;-78
2022/03/01 04:48:20;;;;;;;;;;;24.70;46.10;;;;;;1580389;74;705;-76
2022/03/01 04:50:22;;;;;;;;;;;24.60;46.00;;;;;;1580956;74;1079;-76
2022/03/01 04:52:24;;;;;;;;;;;24.60;46.00;;;;;;1589004;74;1937;-78
2022/03/01 04:54:25;;;;;;;;;;;24.70;46.00;;;;;;1593022;74;697;-76
2022/03/01 04:56:27;;;;;;;;;;;24.70;46.00;;;;;;1594129;74;718;-76
2022/03/01 04:58:29;;;;;;;;;;;24.70;46.00;;;;;;1566011;74;1089;-75
2022/03/01 05:00:31;;;;;;;;;;;24.60;46.00;;;;;;1582185;74;695;-74
2022/03/01 05:02:33;;;;;;;;;;;24.60;46.00;;;;;;1582486;74;756;-73
2022/03/01 05:04:35;;;;;;;;;;;24.60;46.00;;;;;;1580510;74;740;-74
2022/03/01 05:06:37;;;;;;;;;;;24.60;46.00;;;;;;1589104;74;627;-73
2022/03/01 05:08:39;;;;;;;;;;;24.70;46.10;;;;;;1579594;74;1163;-76
2022/03/01 05:10:40;;;;;;;;;;;24.70;46.00;;;;;;1580900;74;683;-75
2022/03/01 05:12:43;;;;;;;;;;;24.60;45.90;;;;;;1579365;74;1935;-77
2022/03/01 05:14:45;;;;;;;;;;;24.60;45.80;;;;;;1581641;74;753;-76
2022/03/01 05:16:46;;;;;;;;;;;24.70;46.00;;;;;;1583495;74;744;-77
2022/03/01 05:18:48;;;;;;;;;;;24.70;46.00;;;;;;1590038;74;1172;-76
2022/03/01 05:20:51;;;;;;;;;;;24.60;45.80;;;;;;1593769;74;706;-77
2022/03/01 05:22:53;;;;;;;;;;;24.70;46.00;;;;;;1552350;75;705;-79
2022/03/01 05:24:55;;;;;;;;;;;24.70;45.90;;;;;;1564089;75;735;-75
2022/03/01 05:26:57;;;;;;;;;;;24.70;45.90;;;;;;1602878;74;733;-79
2022/03/01 05:28:59;;;;;;;;;;;24.70;45.90;;;;;;1574685;74;1129;-78
2022/03/01 05:31:01;;;;;;;;;;;24.60;45.80;;;;;;1578873;74;770;-73
2022/03/01 05:33:03;;;;;;;;;;;24.70;45.90;;;;;;1576880;74;1919;-75
2022/03/01 05:35:05;;;;;;;;;;;24.70;45.90;;;;;;1575933;74;800;-75
2022/03/01 05:37:07;;;;;;;;;;;24.70;46.00;;;;;;1576705;74;718;-76
2022/03/01 05:39:09;;;;;;;;;;;24.70;45.90;;;;;;1575847;74;1151;-78
2022/03/01 05:41:11;;;;;;;;;;;24.70;45.90;;;;;;1575241;74;710;-77
2022/03/01 05:43:13;;;;;;;;;;;24.70;45.90;;;;;;1576969;74;729;-76
2022/03/01 05:45:14;;;;;;;;;;;24.70;45.80;;;;;;1577314;74;730;-75
2022/03/01 05:47:17;;;;;;;;;;;24.70;45.70;;;;;;1576377;74;675;-79
2022/03/01 05:49:18;;;;;;;;;;;24.70;45.80;;;;;;1574677;74;1162;-77
2022/03/01 05:51:20;;;;;;;;;;;24.70;45.70;;;;;;1578837;74;755;-78
2022/03/01 05:53:22;;;;;;;;;;;24.70;45.70;;;;;;1542461;75;1943;-78
2022/03/01 05:55:24;;;;;;;;;;;24.70;45.70;;;;;;1572728;75;714;-77
2022/03/01 05:57:28;;;;;;;;;;;24.70;45.70;;;;;;1576171;75;728;-76
2022/03/01 05:59:29;;;;;;;;;;;24.70;45.70;;;;;;1574997;75;1145;-73
2022/03/01 06:01:31;;;;;;;;;;;24.70;45.70;;;;;;1576657;75;852;-78
2022/03/01 06:03:33;;;;;;;;;;;24.70;45.70;;;;;;1575402;74;703;-77
2022/03/01 06:05:35;;;;;;;;;;;24.70;45.70;;;;;;1562231;74;706;-77
2022/03/01 06:07:37;;;;;;;;;;;24.70;45.70;;;;;;1576827;74;719;-78
2022/03/01 06:09:39;;;;;;;;;;;24.80;45.70;;;;;;1575700;74;1077;-76
2022/03/01 06:11:41;;;;;;;;;;;24.80;45.70;;;;;;1574909;75;745;-74
2022/03/01 06:13:43;;;;;;;;;;;24.70;45.60;;;;;;1575925;75;1914;-75
2022/03/01 06:15:45;;;;;;;;;;;24.70;45.60;;;;;;1564965;74;699;-77
2022/03/01 06:17:47;;;;;;;;;;;24.80;45.50;;;;;;1572733;75;735;-78
2022/03/01 06:19:49;;;;;;;;;;;24.80;45.50;;;;;;1563691;74;1181;-79
2022/03/01 06:21:52;;;;;;;;;;;24.80;45.50;;;;;;1575342;74;959;-76
2022/03/01 06:23:55;;;;;;;;;;;24.70;45.60;;;;;;1578038;74;707;-76
2022/03/01 06:25:57;;;;;;;;;;;24.70;45.50;;;;;;1571654;75;681;-76
2022/03/01 06:27:59;;;;;;;;;;;24.80;45.50;;;;;;1552467;75;691;-76
2022/03/01 06:30:01;;;;;;;;;;;24.80;45.50;;;;;;1559052;75;1212;-76
2022/03/01 06:32:03;;;;;;;;;;;24.80;45.50;;;;;;1554185;75;791;-75
2022/03/01 06:34:04;;;;;;;;;;;24.80;45.50;;;;;;1576264;75;1949;-79
2022/03/01 06:36:06;;;;;;;;;;;24.70;45.60;;;;;;1576330;75;706;-78
2022/03/01 06:38:08;;;;;;;;;;;24.80;45.50;;;;;;1575923;75;786;-78
2022/03/01 06:40:12;;;;;;;;;;;24.70;45.50;;;;;;1572594;75;1197;-76
2022/03/01 06:42:14;;;;;;;;;;;24.80;45.50;;;;;;1576919;74;1115;-79
2022/03/01 06:44:16;;;;;;;;;;;24.80;45.50;;;;;;1576295;75;669;-79
2022/03/01 06:46:20;;;;;;;;;;;24.80;45.40;;;;;;1575125;75;686;-79
2022/03/01 06:48:21;;;;;;;;;;;24.80;45.40;;;;;;1570782;75;1131;-77
2022/03/01 06:50:24;;;;;;;;;;;24.70;45.30;;;;;;1574449;75;1068;-76
2022/03/01 06:52:25;;;;;;;;;;;24.80;45.40;;;;;;1575926;75;719;-76
2022/03/01 06:54:27;;;;;;;;;;;24.80;45.60;;;;;;1564869;75;1925;-70
2022/03/01 06:56:29;;;;;;;;;;;24.80;45.70;;;;;;1574750;74;736;-69
2022/03/01 06:58:31;;;;;;;;;;;24.80;45.50;;;;;;1572007;74;1171;-70
2022/03/01 07:00:33;;;;;;;;;;;24.80;45.40;;;;;;1568165;74;775;-70
2022/03/01 07:02:38;;;;;;;;;;;24.80;45.30;;;;;;1562345;75;650;-71
2022/03/01 07:04:38;;;;;;;;;;;24.80;45.20;;;;;;1574961;74;994;-70
2022/03/01 07:06:40;;;;;;;;;;;24.80;45.20;;;;;;1575538;75;722;-69
2022/03/01 07:08:44;;;;;;;;;;;24.70;45.20;;;;;;1575844;74;1144;-71
2022/03/01 07:10:45;;;;;;;;;;;24.70;45.20;;;;;;1566482;75;695;-69
2022/03/01 07:12:48;;;;;;;;;;;24.70;45.20;;;;;;1573636;75;698;-72
2022/03/01 07:14:49;;;;;;;;;;;24.70;45.20;;;;;;1572369;75;1934;-71
2022/03/01 07:16:51;;;;;;;;;;;24.60;45.10;;;;;;1571973;75;709;-69
2022/03/01 07:18:54;;;;;;;;;;;24.50;45.10;;;;;;1577687;75;1143;-71
2022/03/01 07:20:56;;;;;;;;;;;24.60;45.10;;;;;;1556834;74;690;-76
2022/03/01 07:22:58;;;;;;;;;;;24.50;44.70;;;;;;1556449;75;738;-76
2022/03/01 07:25:00;;;;;;;;;;;24.50;44.00;;;;;;1553239;75;702;-72
2022/03/01 07:27:02;;;;;;;;;;;24.40;43.20;;;;;;1581851;74;708;-74
2022/03/01 07:29:04;;;;;;;;;;;24.30;42.80;;;;;;1538764;75;1209;-73
2022/03/01 07:31:06;;;;;;;;;;;24.30;42.40;;;;;;1548741;75;734;-74
2022/03/01 07:33:08;;;;;;;;;;;24.20;41.70;;;;;;1592847;74;762;-75
2022/03/01 07:35:09;;;;;;;;;;;24.10;41.20;;;;;;1572308;75;1946;-75
2022/03/01 07:37:11;;;;;;;;;;;24.10;40.50;;;;;;1586650;74;739;-75
2022/03/01 07:39:13;;;;;;;;;;;24.00;40.10;;;;;;1601010;74;1150;-75
2022/03/01 07:41:15;;;;;;;;;;;24.00;39.80;;;;;;1565032;75;737;-75
2022/03/01 07:43:17;;;;;;;;;;;23.90;39.20;;;;;;1586141;74;656;-73
2022/03/01 07:45:19;;;;;;;;;;;23.90;38.90;;;;;;1586731;74;738;-74
2022/03/01 07:47:21;;;;;;;;;;;23.80;38.30;;;;;;1570771;74;710;-78
2022/03/01 07:49:23;;;;;;;;;;;23.70;38.10;;;;;;1574408;75;1204;-74
2022/03/01 07:51:25;;;;;;;;;;;23.70;37.70;;;;;;1593028;74;710;-72
2022/03/01 07:53:27;;;;;;;;;;;23.60;37.10;;;;;;1596597;74;1941;-75
2022/03/01 07:55:29;;;;;;;;;;;23.60;36.30;;;;;;1582553;74;735;-72
2022/03/01 07:57:31;;;;;;;;;;;23.60;36.40;;;;;;1596709;74;710;-72
2022/03/01 07:59:33;;;;;;;;;;;23.50;36.50;;;;;;1580896;74;1378;-72
2022/03/01 08:01:35;;;;;;;;;;;23.40;36.30;;;;;;1577149;74;709;-72
2022/03/01 08:03:37;;;;;;;;;;;23.40;36.40;;;;;;1583532;74;754;-73
2022/03/01 08:05:39;;;;;;;;;;;23.30;35.90;;;;;;1604348;74;802;-72
2022/03/01 08:07:41;;;;;;;;;;;23.30;35.70;;;;;;1569604;74;740;-70
2022/03/01 08:09:44;;;;;;;;;;;23.20;35.60;;;;;;1592724;74;1212;-76
2022/03/01 08:11:46;;;;;;;;;;;23.20;34.20;;;;;;1598638;74;729;-73
2022/03/01 08:13:48;;;;;;;;;;;23.10;33.00;;;;;;1569098;75;1929;-75
2022/03/01 08:15:50;;;;;;;;;;;23.00;33.70;;;;;;1564222;74;688;-73
2022/03/01 08:17:53;;;;;;;;;;;23.00;34.20;;;;;;1582043;74;714;-74
2022/03/01 08:19:54;;;;;;;;;;;23.00;34.80;;;;;;1580939;74;1121;-73
2022/03/01 08:21:56;;;;;;;;;;;23.00;33.60;;;;;;1567568;74;737;-74
2022/03/01 08:23:58;;;;;;;;;;;23.00;34.00;;;;;;1586331;74;725;-74
2022/03/01 08:26:01;;;;;;;;;;;23.00;33.80;;;;;;1587578;74;719;-72
2022/03/01 08:28:03;;;;;;;;;;;23.00;33.90;;;;;;1590185;74;720;-73
2022/03/01 08:30:06;;;;;;;;;;;22.90;33.40;;;;;;1590584;74;2073;-77
2022/03/01 08:32:08;;;;;;;;;;;22.90;34.10;;;;;;1597420;74;797;-74
2022/03/01 08:34:10;;;;;;;;;;;22.90;33.60;;;;;;1598446;74;1933;-77
2022/03/01 08:36:15;;;;;;;;;;;23.00;33.40;;;;;;1604291;74;717;-76
2022/03/01 08:38:17;;;;;;;;;;;22.90;32.50;;;;;;1599102;74;723;-77
2022/03/01 08:40:21;;;;;;;;;;;22.90;32.10;;;;;;1593603;73;1190;-75
2022/03/01 08:42:22;;;;;;;;;;;22.80;32.30;;;;;;1613888;73;2679;-75
2022/03/01 08:44:24;;;;;;;;;;;22.70;32.00;;;;;;1605752;73;779;-76
2022/03/01 08:46:26;;;;;;;;;;;22.70;31.00;;;;;;1611731;73;674;-76
2022/03/01 08:48:28;;;;;;;;;;;22.70;31.30;;;;;;1616664;73;782;-74
2022/03/01 08:50:30;;;;;;;;;;;22.70;31.90;;;;;;1617164;73;1111;-79
2022/03/01 08:52:31;;;;;;;;;;;22.70;32.60;;;;;;1612528;73;745;-76
2022/03/01 08:54:33;;;;;;;;;;;22.70;31.90;;;;;;1596790;73;1970;-75
2022/03/01 08:56:35;;;;;;;;;;;22.70;31.40;;;;;;1621882;73;750;-73
2022/03/01 08:58:37;;;;;;;;;;;22.70;31.90;;;;;;1611094;73;723;-79
2022/03/01 09:00:39;;;;;;;;;;;22.70;32.10;;;;;;1625094;73;1090;-74
2022/03/01 09:02:41;;;;;;;;;;;22.70;32.30;;;;;;1624987;73;721;-72
2022/03/01 09:04:43;;;;;;;;;;;22.70;32.50;;;;;;1625403;73;803;-75
2022/03/01 09:06:45;;;;;;;;;;;22.70;32.50;;;;;;1616084;73;742;-74
2022/03/01 09:08:46;;;;;;;;;;;22.70;32.60;;;;;;1611845;73;786;-73
2022/03/01 09:10:48;;;;;;;;;;;22.70;31.80;;;;;;1605931;73;1148;-74
2022/03/01 09:12:51;;;;;;;;;;;22.70;32.20;;;;;;1604874;73;749;-74
2022/03/01 09:14:53;;;;;;;;;;;22.70;31.10;;;;;;1603919;73;1917;-74
2022/03/01 09:16:55;;;;;;;;;;;22.70;31.50;;;;;;1602947;73;822;-73
2022/03/01 09:18:57;;;;;;;;;;;22.70;32.00;;;;;;1622106;73;1138;-70
2022/03/01 09:20:59;;;;;;;;;;;22.70;32.10;;;;;;1621676;73;726;-73
2022/03/01 09:23:00;;;;;;;;;;;22.70;31.30;;;;;;1611275;73;700;-73
2022/03/01 09:25:04;;;;;;;;;;;22.70;31.80;;;;;;1606463;73;719;-73
2022/03/01 09:27:06;;;;;;;;;;;22.70;31.20;;;;;;1602131;73;786;-74
2022/03/01 09:29:08;;;;;;;;;;;22.60;31.10;;;;;;1594997;73;1130;-74
2022/03/01 09:31:10;;;;;;;;;;;22.60;30.70;;;;;;1617597;73;752;-73
2022/03/01 09:33:12;;;;;;;;;;;22.60;30.60;;;;;;1620562;73;771;-73
2022/03/01 09:35:14;;;;;;;;;;;22.60;30.10;;;;;;1600409;73;1926;-74
2022/03/01 09:37:16;;;;;;;;;;;22.60;30.20;;;;;;1624070;73;807;-72
2022/03/01 09:39:18;;;;;;;;;;;22.50;30.40;;;;;;1596784;73;1151;-72
2022/03/01 09:41:20;;;;;;;;;;;22.50;29.80;;;;;;1610379;73;664;-73
2022/03/01 09:43:22;;;;;;;;;;;22.50;31.00;;;;;;1597822;73;726;-72
2022/03/01 09:45:24;;;;;;;;;;;22.50;31.10;;;;;;1610025;73;652;-73
2022/03/01 09:47:26;;;;;;;;;;;22.50;31.70;;;;;;1611817;73;736;-71
2022/03/01 09:49:27;;;;;;;;;;;22.60;31.70;;;;;;1613161;73;1137;-74
2022/03/01 09:51:29;;;;;;;;;;;22.60;31.50;;;;;;1612250;73;744;-73
2022/03/01 09:53:31;;;;;;;;;;;22.60;31.50;;;;;;1602657;73;733;-73
2022/03/01 09:55:33;;;;;;;;;;;22.60;31.60;;;;;;1617779;73;1946;-72
2022/03/01 09:57:35;;;;;;;;;;;22.60;31.50;;;;;;1620279;73;775;-72
2022/03/01 09:59:37;;;;;;;;;;;22.60;31.50;;;;;;1606601;73;1150;-73
2022/03/01 10:01:40;;;;;;;;;;;22.60;31.70;;;;;;1610152;73;801;-74
2022/03/01 10:03:48;;;;;;;;;;;22.60;31.50;;;;;;1600898;73;1807;-72
2022/03/01 10:05:46;;;;;;;;;;;22.70;31.70;;;;;;1604834;73;1603;-72
2022/03/01 10:07:48;;;;;;;;;;;22.60;31.80;;;;;;1627477;73;742;-72
2022/03/01 10:09:50;;;;;;;;;;;22.60;31.70;;;;;;1626884;73;1153;-72
2022/03/01 10:11:52;;;;;;;;;;;22.60;31.80;;;;;;1624642;73;762;-72
2022/03/01 10:13:57;;;;;;;;;;;22.70;32.00;;;;;;1627934;73;765;-72
2022/03/01 10:16:10;;;;;;;;;;;22.60;31.90;;;;;;1627934;73;1923;-75
2022/03/01 10:18:12;;;;;;;;;;;22.70;32.10;;;;;;1623106;73;791;-73
2022/03/01 10:20:15;;;;;;;;;;;22.70;31.80;;;;;;1620008;73;1170;-72
2022/03/01 10:22:17;;;;;;;;;;;22.70;32.10;;;;;;1613567;73;682;-72
2022/03/01 10:24:22;;;;;;;;;;;22.70;32.00;;;;;;1595353;74;1229;-73
2022/03/01 10:26:24;;;;;;;;;;;22.70;32.10;;;;;;1621267;73;806;-73
2022/03/01 10:28:36;;;;;;;;;;;22.70;32.10;;;;;;1620773;73;725;-71
2022/03/01 10:30:39;;;;;;;;;;;22.70;32.10;;;;;;1616879;73;1107;-73
2022/03/01 10:32:41;;;;;;;;;;;22.70;32.10;;;;;;1621192;73;786;-72
2022/03/01 10:34:44;;;;;;;;;;;22.70;32.00;;;;;;1622534;73;1927;-74
2022/03/01 10:36:49;;;;;;;;;;;22.70;31.80;;;;;;1616069;73;1948;-72
2022/03/01 10:38:55;;;;;;;;;;;22.70;32.10;;;;;;1622568;72;1116;-72
2022/03/01 10:40:58;;;;;;;;;;;22.70;31.80;;;;;;1599336;73;766;-74
2022/03/01 10:43:01;;;;;;;;;;;22.70;31.60;;;;;;1614435;73;750;-73
2022/03/01 10:45:03;;;;;;;;;;;22.70;31.10;;;;;;1616808;73;693;-74
2022/03/01 10:47:05;;;;;;;;;;;22.60;30.50;;;;;;1617327;73;855;-73
2022/03/01 10:49:08;;;;;;;;;;;22.60;30.60;;;;;;1621593;72;1148;-75
2022/03/01 10:51:10;;;;;;;;;;;22.70;30.60;;;;;;1620081;73;720;-72
2022/03/01 10:53:12;;;;;;;;;;;22.60;30.50;;;;;;1615660;73;755;-74
2022/03/01 10:55:24;;;;;;;;;;;22.50;29.90;;;;;;1605573;73;1921;-73
2022/03/01 10:57:26;;;;;;;;;;;22.60;30.10;;;;;;1614175;73;758;-72
2022/03/01 10:59:28;;;;;;;;;;;22.50;29.40;;;;;;1614582;73;1167;-72
2022/03/01 11:01:30;;;;;;;;;;;22.50;29.00;;;;;;1603957;73;732;-75
2022/03/01 11:03:32;;;;;;;;;;;22.50;29.60;;;;;;1600138;73;787;-72
2022/03/01 11:05:34;;;;;;;;;;;22.50;29.80;;;;;;1606166;73;783;-72
2022/03/01 11:07:36;;;;;;;;;;;22.50;30.20;;;;;;1595673;73;774;-72
2022/03/01 11:09:38;;;;;;;;;;;22.60;30.30;;;;;;1617785;73;1126;-73
2022/03/01 11:11:40;;;;;;;;;;;22.60;30.50;;;;;;1619685;73;729;-73
2022/03/01 11:13:45;;;;;;;;;;;22.70;30.70;;;;;;1603908;73;753;-72
2022/03/01 11:15:55;;;;;;;;;;;22.70;30.80;;;;;;1604598;73;1911;-73
2022/03/01 11:18:15;;;;;;;;;;;22.80;31.00;;;;;;1597025;73;1196;-71
2022/03/01 11:20:21;;;;;;;;;;;22.80;31.10;;;;;;1611374;73;1123;-71
2022/03/01 11:22:27;;;;;;;;;;;22.80;31.20;;;;;;1598728;73;720;-72
2022/03/01 11:24:28;;;;;;;;;;;22.90;31.40;;;;;;1616809;73;696;-73
2022/03/01 11:26:41;;;;;;;;;;;22.90;31.50;;;;;;1620739;72;739;-72
2022/03/01 11:28:40;;;;;;;;;;;23.00;31.50;;;;;;1598266;73;964;-72
2022/03/01 11:30:44;;;;;;;;;;;22.90;31.60;;;;;;1608641;73;1079;-72
2022/03/01 11:32:46;;;;;;;;;;;23.00;31.70;;;;;;1607548;73;706;-72
2022/03/01 11:34:48;;;;;;;;;;;23.00;31.80;;;;;;1601715;73;1943;-71
2022/03/01 11:36:52;;;;;;;;;;;23.00;31.90;;;;;;1616525;73;838;-72
2022/03/01 11:38:54;;;;;;;;;;;23.00;32.00;;;;;;1603215;73;1465;-72
2022/03/01 11:41:00;;;;;;;;;;;23.10;32.10;;;;;;1597133;73;698;-71
2022/03/01 11:43:11;;;;;;;;;;;23.00;32.10;;;;;;1600885;73;1111;-71
2022/03/01 11:45:12;;;;;;;;;;;23.10;32.30;;;;;;1608484;73;762;-72
2022/03/01 11:47:16;;;;;;;;;;;23.10;32.30;;;;;;1606205;73;740;-72
2022/03/01 11:49:19;;;;;;;;;;;23.10;32.40;;;;;;1612721;73;1155;-72
2022/03/01 11:51:22;;;;;;;;;;;23.10;32.60;;;;;;1602597;73;606;-72
2022/03/01 11:53:25;;;;;;;;;;;23.20;32.70;;;;;;1616333;73;942;-72
2022/03/01 11:55:34;;;;;;;;;;;23.10;32.80;;;;;;1616510;73;1935;-73
2022/03/01 11:57:36;;;;;;;;;;;23.10;32.80;;;;;;1619776;73;800;-73
2022/03/01 11:59:38;;;;;;;;;;;23.20;32.90;;;;;;1618788;72;1188;-74
2022/03/01 12:01:40;;;;;;;;;;;23.20;33.10;;;;;;1623481;73;720;-75
2022/03/01 12:03:42;;;;;;;;;;;23.20;33.10;;;;;;1583681;74;790;-71
2022/03/01 12:05:48;;;;;;;;;;;23.20;33.10;;;;;;1607825;73;790;-74
2022/03/01 12:07:50;;;;;;;;;;;23.10;33.20;;;;;;1602808;73;761;-72
2022/03/01 12:10:00;;;;;;;;;;;23.10;33.30;;;;;;1606452;73;1146;-72